createdAt,value
2016-05-03T00:00:15.458Z,1012.14
2016-05-03T00:01:15.430Z,1012.09
2016-05-03T00:02:15.418Z,1012.06
2016-05-03T00:03:15.404Z,1012.06
2016-05-03T00:04:15.391Z,1012.08
2016-05-03T00:05:15.379Z,1012.07
2016-05-03T00:06:15.350Z,1012.07
2016-05-03T00:07:15.415Z,1012.02
2016-05-03T00:08:15.324Z,1012.04
2016-05-03T00:09:15.295Z,1012.01
2016-05-03T00:10:15.283Z,1011.97
2016-05-03T00:11:15.254Z,1012.02
2016-05-03T00:12:15.241Z,1011.96
2016-05-03T00:13:15.229Z,1011.92
2016-05-03T00:14:15.215Z,1011.93
2016-05-03T00:15:15.187Z,1011.92
2016-05-03T00:16:15.174Z,1011.93
2016-05-03T00:17:15.161Z,1011.91
2016-05-03T00:18:15.148Z,1011.88
2016-05-03T00:19:15.120Z,1011.87
2016-05-03T00:20:15.107Z,1011.87
2016-05-03T00:21:15.078Z,1011.85
2016-05-03T00:22:15.081Z,1011.88
2016-05-03T00:23:15.053Z,1011.85
2016-05-03T00:24:15.039Z,1011.83
2016-05-03T00:25:15.012Z,1011.83
2016-05-03T00:26:14.996Z,1011.84
2016-05-03T00:27:14.971Z,1011.82
2016-05-03T00:28:14.968Z,1011.85
2016-05-03T00:29:14.944Z,1011.86
2016-05-03T00:30:14.919Z,1011.84
2016-05-03T00:31:14.906Z,1011.86
2016-05-03T00:32:14.894Z,1011.79
2016-05-03T00:33:14.882Z,1011.83
2016-05-03T00:34:14.852Z,1011.83
2016-05-03T00:35:14.839Z,1011.81
2016-05-03T00:36:14.811Z,1011.84
2016-05-03T00:37:14.798Z,1011.78
2016-05-03T00:38:14.788Z,1011.83
2016-05-03T00:39:14.760Z,1011.83
2016-05-03T00:40:14.746Z,1011.81
2016-05-03T00:41:14.734Z,1011.81
2016-05-03T00:42:14.720Z,1011.81
2016-05-03T00:43:14.693Z,1011.79
2016-05-03T00:44:14.679Z,1011.82
2016-05-03T00:45:14.666Z,1011.79
2016-05-03T00:46:14.637Z,1011.8
2016-05-03T00:47:14.625Z,1011.76
2016-05-03T00:48:14.596Z,1011.77
2016-05-03T00:49:14.584Z,1011.76
2016-05-03T00:50:14.570Z,1011.78
2016-05-03T00:51:14.542Z,1011.77
2016-05-03T00:52:14.529Z,1011.72
2016-05-03T00:53:14.516Z,1011.76
2016-05-03T00:54:14.487Z,1011.72
2016-05-03T00:55:14.475Z,1011.74
2016-05-03T00:56:14.461Z,1011.72
2016-05-03T00:57:14.433Z,1011.71
2016-05-03T00:58:14.436Z,1011.69
2016-05-03T00:59:14.407Z,1011.69
2016-05-03T01:00:14.394Z,1011.6
2016-05-03T01:01:14.381Z,1011.62
2016-05-03T01:02:14.352Z,1011.66
2016-05-03T01:03:14.340Z,1011.64
2016-05-03T01:04:14.311Z,1011.62
2016-05-03T01:05:14.298Z,1011.64
2016-05-03T01:06:14.286Z,1011.63
2016-05-03T01:07:14.257Z,1011.63
2016-05-03T01:08:14.260Z,1011.61
2016-05-03T01:09:14.230Z,1011.6
2016-05-03T01:10:14.203Z,1011.6
2016-05-03T01:11:14.189Z,1011.61
2016-05-03T01:12:14.177Z,1011.57
2016-05-03T01:13:14.163Z,1011.58
2016-05-03T01:14:14.134Z,1011.61
2016-05-03T01:15:14.122Z,1011.58
2016-05-03T01:16:14.109Z,1011.57
2016-05-03T01:17:14.081Z,1011.55
2016-05-03T01:18:14.067Z,1011.57
2016-05-03T01:19:14.055Z,1011.56
2016-05-03T01:20:14.026Z,1011.51
2016-05-03T01:21:14.013Z,1011.57
2016-05-03T01:22:14.156Z,1011.57
2016-05-03T01:23:13.972Z,1011.63
2016-05-03T01:24:13.959Z,1011.56
2016-05-03T01:25:13.946Z,1011.57
2016-05-03T01:26:13.917Z,1011.55
2016-05-03T01:27:13.904Z,1011.58
2016-05-03T01:28:13.892Z,1011.59
2016-05-03T01:29:13.863Z,1011.62
2016-05-03T01:30:13.850Z,1011.58
2016-05-03T01:31:13.836Z,1011.54
2016-05-03T01:32:13.825Z,1011.58
2016-05-03T01:33:13.795Z,1011.58
2016-05-03T01:34:13.783Z,1011.57
2016-05-03T01:35:13.755Z,1011.59
2016-05-03T01:36:13.741Z,1011.55
2016-05-03T01:37:13.744Z,1011.53
2016-05-03T01:38:13.716Z,1011.53
2016-05-03T01:39:13.686Z,1011.48
2016-05-03T01:40:13.674Z,1011.51
2016-05-03T01:41:13.661Z,1011.51
2016-05-03T01:42:13.649Z,1011.5
2016-05-03T01:43:13.619Z,1011.52
2016-05-03T01:44:13.607Z,1011.48
2016-05-03T01:45:13.593Z,1011.48
2016-05-03T01:46:13.565Z,1011.48
2016-05-03T01:47:13.552Z,1011.46
2016-05-03T01:48:13.540Z,1011.47
2016-05-03T01:49:13.510Z,1011.44
2016-05-03T01:50:13.498Z,1011.43
2016-05-03T01:51:13.485Z,1011.41
2016-05-03T01:52:13.878Z,1011.41
2016-05-03T01:53:13.444Z,1011.44
2016-05-03T01:54:13.431Z,1011.43
2016-05-03T01:55:13.417Z,1011.38
2016-05-03T01:56:13.390Z,1011.47
2016-05-03T01:57:13.376Z,1011.45
2016-05-03T01:58:13.347Z,1011.42
2016-05-03T01:59:13.334Z,1011.41
2016-05-03T02:00:13.322Z,1011.4
2016-05-03T02:01:13.309Z,1011.36
2016-05-03T02:02:13.280Z,1011.37
2016-05-03T02:03:13.267Z,1011.38
2016-05-03T02:04:13.254Z,1011.35
2016-05-03T02:05:13.226Z,1011.39
2016-05-03T02:06:13.214Z,1011.4
2016-05-03T02:07:13.199Z,1011.38
2016-05-03T02:08:13.187Z,1011.34
2016-05-03T02:09:13.158Z,1011.44
2016-05-03T02:10:13.145Z,1011.42
2016-05-03T02:11:13.117Z,1011.44
2016-05-03T02:12:13.104Z,1011.43
2016-05-03T02:13:13.091Z,1011.43
2016-05-03T02:14:13.063Z,1011.4
2016-05-03T02:15:13.049Z,1011.46
2016-05-03T02:16:13.036Z,1011.43
2016-05-03T02:17:13.008Z,1011.44
2016-05-03T02:18:12.995Z,1011.42
2016-05-03T02:19:12.982Z,1011.41
2016-05-03T02:20:12.969Z,1011.43
2016-05-03T02:21:12.941Z,1011.43
2016-05-03T02:22:12.974Z,1011.45
2016-05-03T02:23:12.899Z,1011.42
2016-05-03T02:24:12.886Z,1011.42
2016-05-03T02:25:12.873Z,1011.39
2016-05-03T02:26:12.860Z,1011.42
2016-05-03T02:27:12.832Z,1011.37
2016-05-03T02:28:12.818Z,1011.43
2016-05-03T02:29:12.806Z,1011.43
2016-05-03T02:30:13.043Z,1011.43
2016-05-03T02:31:12.765Z,1011.4
2016-05-03T02:32:12.751Z,1011.43
2016-05-03T02:33:12.738Z,1011.39
2016-05-03T02:34:12.710Z,1011.42
2016-05-03T02:35:12.697Z,1011.42
2016-05-03T02:36:12.684Z,1011.4
2016-05-03T02:37:12.655Z,1011.37
2016-05-03T02:38:12.987Z,1011.39
2016-05-03T02:39:12.630Z,1011.34
2016-05-03T02:40:12.600Z,1011.35
2016-05-03T02:41:12.588Z,1011.43
2016-05-03T02:42:12.575Z,1011.43
2016-05-03T02:43:12.547Z,1011.43
2016-05-03T02:44:12.534Z,1011.4
2016-05-03T02:45:12.521Z,1011.37
2016-05-03T02:46:12.946Z,1011.39
2016-05-03T02:47:12.480Z,1011.36
2016-05-03T02:48:12.466Z,1011.35
2016-05-03T02:49:12.438Z,1011.36
2016-05-03T02:50:12.424Z,1011.3
2016-05-03T02:51:12.413Z,1011.3
2016-05-03T02:52:12.399Z,1011.34
2016-05-03T02:53:12.371Z,1011.32
2016-05-03T02:54:13.014Z,1011.32
2016-05-03T02:55:12.346Z,1011.36
2016-05-03T02:56:12.316Z,1011.28
2016-05-03T02:57:12.304Z,1011.27
2016-05-03T02:58:12.291Z,1011.28
2016-05-03T02:59:12.262Z,1011.3
2016-05-03T03:00:12.249Z,1011.33
2016-05-03T03:01:12.236Z,1011.27
2016-05-03T03:02:12.270Z,1011.27
2016-05-03T03:03:12.195Z,1011.28
2016-05-03T03:04:12.182Z,1011.22
2016-05-03T03:05:12.168Z,1011.23
2016-05-03T03:06:12.140Z,1011.18
2016-05-03T03:07:12.299Z,1011.18
2016-05-03T03:08:12.114Z,1011.2
2016-05-03T03:09:12.085Z,1011.19
2016-05-03T03:10:12.276Z,1011.21
2016-05-03T03:11:12.059Z,1011.19
2016-05-03T03:12:12.047Z,1011.17
2016-05-03T03:13:12.018Z,1011.19
2016-05-03T03:14:12.006Z,1011.18
2016-05-03T03:15:11.977Z,1011.14
2016-05-03T03:16:11.964Z,1011.13
2016-05-03T03:17:11.951Z,1011.13
2016-05-03T03:18:12.282Z,1011.09
2016-05-03T03:19:11.910Z,1011.06
2016-05-03T03:20:11.896Z,1011.05
2016-05-03T03:21:11.883Z,1011.06
2016-05-03T03:22:11.871Z,1011.07
2016-05-03T03:23:11.842Z,1011.06
2016-05-03T03:24:11.829Z,1011.06
2016-05-03T03:25:11.801Z,1011.06
2016-05-03T03:26:11.787Z,1011
2016-05-03T03:27:11.774Z,1010.99
2016-05-03T03:28:11.746Z,1010.98
2016-05-03T03:29:11.749Z,1010.99
2016-05-03T03:30:11.721Z,1010.95
2016-05-03T03:31:11.724Z,1010.96
2016-05-03T03:32:11.695Z,1010.97
2016-05-03T03:33:11.666Z,1010.86
2016-05-03T03:34:11.637Z,1010.88
2016-05-03T03:35:11.624Z,1010.89
2016-05-03T03:36:11.612Z,1010.85
2016-05-03T03:37:11.598Z,1010.88
2016-05-03T03:38:11.570Z,1010.88
2016-05-03T03:39:11.557Z,1010.92
2016-05-03T03:40:11.544Z,1010.88
2016-05-03T03:41:11.531Z,1010.89
2016-05-03T03:42:11.518Z,1010.9
2016-05-03T03:43:11.490Z,1010.92
2016-05-03T03:44:11.478Z,1010.94
2016-05-03T03:45:11.463Z,1010.93
2016-05-03T03:46:11.435Z,1010.97
2016-05-03T03:47:11.422Z,1010.97
2016-05-03T03:48:11.409Z,1010.92
2016-05-03T03:49:11.380Z,1010.9
2016-05-03T03:50:11.369Z,1010.91
2016-05-03T03:51:11.339Z,1010.9
2016-05-03T03:52:11.530Z,1010.92
2016-05-03T03:53:11.313Z,1010.89
2016-05-03T03:54:11.300Z,1010.89
2016-05-03T03:55:11.271Z,1010.87
2016-05-03T03:56:11.260Z,1010.92
2016-05-03T03:57:11.246Z,1010.9
2016-05-03T03:58:11.217Z,1010.87
2016-05-03T03:59:11.204Z,1010.89
2016-05-03T04:00:11.191Z,1010.84
2016-05-03T04:01:11.163Z,1010.82
2016-05-03T04:02:11.151Z,1010.87
2016-05-03T04:03:11.137Z,1010.9
2016-05-03T04:04:11.124Z,1010.9
2016-05-03T04:05:11.096Z,1010.89
2016-05-03T04:06:11.083Z,1010.92
2016-05-03T04:07:11.054Z,1010.92
2016-05-03T04:08:11.041Z,1010.91
2016-05-03T04:09:11.028Z,1010.92
2016-05-03T04:10:11.015Z,1010.91
2016-05-03T04:11:11.003Z,1010.96
2016-05-03T04:12:10.974Z,1010.94
2016-05-03T04:13:10.962Z,1010.91
2016-05-03T04:14:10.947Z,1010.95
2016-05-03T04:15:10.919Z,1010.99
2016-05-03T04:16:10.906Z,1010.94
2016-05-03T04:17:10.878Z,1010.96
2016-05-03T04:18:10.865Z,1010.91
2016-05-03T04:19:10.852Z,1010.93
2016-05-03T04:20:10.839Z,1010.97
2016-05-03T04:21:10.831Z,1011.01
2016-05-03T04:22:11.239Z,1011.01
2016-05-03T04:23:10.883Z,1010.98
2016-05-03T04:24:10.916Z,1011.06
2016-05-03T04:25:10.935Z,1011.11
2016-05-03T04:26:10.964Z,1011.06
2016-05-03T04:27:10.953Z,1011.08
2016-05-03T04:28:10.955Z,1011.02
2016-05-03T04:29:10.960Z,1011.06
2016-05-03T04:30:10.963Z,1011.08
2016-05-03T04:31:10.950Z,1011.1
2016-05-03T04:32:10.942Z,1011.16
2016-05-03T04:33:10.937Z,1011.14
2016-05-03T04:34:10.914Z,1011.18
2016-05-03T04:35:10.908Z,1011.26
2016-05-03T04:36:10.899Z,1011.49
2016-05-03T04:37:10.874Z,1011.54
2016-05-03T04:38:10.863Z,1011.62
2016-05-03T04:39:10.852Z,1011.51
2016-05-03T04:40:10.826Z,1011.54
2016-05-03T04:41:10.816Z,1011.54
2016-05-03T04:42:10.803Z,1011.56
2016-05-03T04:43:10.791Z,1011.55
2016-05-03T04:44:10.763Z,1011.64
2016-05-03T04:45:10.752Z,1011.63
2016-05-03T04:46:10.739Z,1011.68
2016-05-03T04:47:10.711Z,1011.65
2016-05-03T04:48:10.698Z,1011.69
2016-05-03T04:49:10.685Z,1011.65
2016-05-03T04:50:10.657Z,1011.68
2016-05-03T04:51:10.645Z,1011.7
2016-05-03T04:52:10.632Z,1011.73
2016-05-03T04:53:10.618Z,1011.71
2016-05-03T04:54:10.590Z,1011.76
2016-05-03T04:55:10.577Z,1011.77
2016-05-03T04:56:10.549Z,1011.79
2016-05-03T04:57:10.536Z,1011.78
2016-05-03T04:58:10.523Z,1011.77
2016-05-03T04:59:10.495Z,1011.79
2016-05-03T05:00:10.497Z,1011.83
2016-05-03T05:01:10.468Z,1011.86
2016-05-03T05:02:10.456Z,1011.88
2016-05-03T05:03:10.428Z,1011.85
2016-05-03T05:04:10.414Z,1011.83
2016-05-03T05:05:10.401Z,1011.85
2016-05-03T05:06:10.388Z,1011.86
2016-05-03T05:07:11.953Z,1011.93
2016-05-03T05:08:10.347Z,1011.96
2016-05-03T05:09:10.334Z,1011.99
2016-05-03T05:10:10.321Z,1012.04
2016-05-03T05:11:10.292Z,1012.04
2016-05-03T05:12:10.280Z,1011.99
2016-05-03T05:13:10.250Z,1012.04
2016-05-03T05:14:10.238Z,1012.05
2016-05-03T05:15:10.225Z,1012.11
2016-05-03T05:16:10.212Z,1012.1
2016-05-03T05:17:10.183Z,1012.09
2016-05-03T05:18:10.171Z,1012.12
2016-05-03T05:19:10.157Z,1012.11
2016-05-03T05:20:10.129Z,1012.15
2016-05-03T05:21:10.116Z,1012.2
2016-05-03T05:22:10.104Z,1012.23
2016-05-03T05:23:10.090Z,1012.21
2016-05-03T05:24:10.062Z,1012.24
2016-05-03T05:25:10.049Z,1012.32
2016-05-03T05:26:10.035Z,1012.32
2016-05-03T05:27:10.007Z,1012.33
2016-05-03T05:28:09.994Z,1012.31
2016-05-03T05:29:09.981Z,1012.37
2016-05-03T05:30:09.953Z,1012.38
2016-05-03T05:31:09.940Z,1012.44
2016-05-03T05:32:09.926Z,1012.44
2016-05-03T05:33:09.914Z,1012.46
2016-05-03T05:34:09.886Z,1012.46
2016-05-03T05:35:09.872Z,1012.49
2016-05-03T05:36:09.859Z,1012.47
2016-05-03T05:37:09.831Z,1012.51
2016-05-03T05:38:09.817Z,1012.5
2016-05-03T05:39:09.806Z,1012.51
2016-05-03T05:40:09.777Z,1012.5
2016-05-03T05:41:09.763Z,1012.5
2016-05-03T05:42:09.750Z,1012.54
2016-05-03T05:43:09.738Z,1012.53
2016-05-03T05:44:09.708Z,1012.54
2016-05-03T05:45:09.696Z,1012.55
2016-05-03T05:46:09.683Z,1012.59
2016-05-03T05:47:09.655Z,1012.58
2016-05-03T05:48:09.641Z,1012.6
2016-05-03T05:49:09.629Z,1012.59
2016-05-03T05:50:09.616Z,1012.62
2016-05-03T05:51:09.603Z,1012.6
2016-05-03T05:52:09.574Z,1012.63
2016-05-03T05:53:09.562Z,1012.66
2016-05-03T05:54:09.533Z,1012.65
2016-05-03T05:55:09.520Z,1012.7
2016-05-03T05:56:09.507Z,1012.67
2016-05-03T05:57:09.541Z,1012.68
2016-05-03T05:58:09.465Z,1012.73
2016-05-03T05:59:09.453Z,1012.71
2016-05-03T06:00:09.440Z,1012.76
2016-05-03T06:01:09.411Z,1012.74
2016-05-03T06:02:09.398Z,1012.83
2016-05-03T06:03:09.384Z,1012.8
2016-05-03T06:04:09.357Z,1012.8
2016-05-03T06:05:09.548Z,1012.78
2016-05-03T06:06:09.331Z,1012.82
2016-05-03T06:07:09.317Z,1012.8
2016-05-03T06:08:09.289Z,1012.86
2016-05-03T06:09:09.276Z,1012.85
2016-05-03T06:10:09.264Z,1012.85
2016-05-03T06:11:09.236Z,1012.87
2016-05-03T06:12:09.222Z,1013
2016-05-03T06:13:09.552Z,1013.01
2016-05-03T06:14:09.181Z,1013
2016-05-03T06:15:09.167Z,1013.03
2016-05-03T06:16:09.155Z,1013.01
2016-05-03T06:17:09.142Z,1013.03
2016-05-03T06:18:09.114Z,1013.05
2016-05-03T06:19:09.100Z,1013.09
2016-05-03T06:20:09.088Z,1013.08
2016-05-03T06:21:09.558Z,1013.11
2016-05-03T06:22:09.046Z,1013.15
2016-05-03T06:23:09.018Z,1013.11
2016-05-03T06:24:09.005Z,1013.1
2016-05-03T06:25:08.991Z,1013.19
2016-05-03T06:26:08.978Z,1013.12
2016-05-03T06:27:08.966Z,1013.16
2016-05-03T06:28:08.952Z,1013.19
2016-05-03T06:29:09.580Z,1013.2
2016-05-03T06:30:08.912Z,1013.24
2016-05-03T06:31:08.882Z,1013.18
2016-05-03T06:32:08.870Z,1013.21
2016-05-03T06:33:08.857Z,1013.25
2016-05-03T06:34:08.828Z,1013.26
2016-05-03T06:35:08.831Z,1013.26
2016-05-03T06:36:08.803Z,1013.28
2016-05-03T06:37:08.884Z,1013.24
2016-05-03T06:38:08.760Z,1013.32
2016-05-03T06:39:08.748Z,1013.32
2016-05-03T06:40:08.734Z,1013.32
2016-05-03T06:41:08.706Z,1013.32
2016-05-03T06:42:08.694Z,1013.33
2016-05-03T06:43:08.681Z,1013.35
2016-05-03T06:44:08.652Z,1013.35
2016-05-03T06:45:08.841Z,1013.43
2016-05-03T06:46:08.625Z,1013.43
2016-05-03T06:47:08.597Z,1013.43
2016-05-03T06:48:08.585Z,1013.46
2016-05-03T06:49:08.572Z,1013.42
2016-05-03T06:50:08.558Z,1013.43
2016-05-03T06:51:08.530Z,1013.46
2016-05-03T06:52:08.517Z,1013.48
2016-05-03T06:53:08.848Z,1013.47
2016-05-03T06:54:08.476Z,1013.55
2016-05-03T06:55:08.462Z,1013.59
2016-05-03T06:56:08.450Z,1013.6
2016-05-03T06:57:08.437Z,1013.6
2016-05-03T06:58:08.408Z,1013.59
2016-05-03T06:59:08.396Z,1013.59
2016-05-03T07:00:08.367Z,1013.57
2016-05-03T07:01:08.354Z,1013.62
2016-05-03T07:02:08.341Z,1013.65
2016-05-03T07:03:08.328Z,1013.69
2016-05-03T07:04:08.299Z,1013.72
2016-05-03T07:05:08.284Z,1013.66
2016-05-03T07:06:08.271Z,1013.66
2016-05-03T07:07:08.462Z,1013.63
2016-05-03T07:08:08.229Z,1013.68
2016-05-03T07:09:08.217Z,1013.72
2016-05-03T07:10:08.187Z,1013.87
2016-05-03T07:11:08.175Z,1013.82
2016-05-03T07:12:08.162Z,1013.84
2016-05-03T07:13:08.150Z,1013.8
2016-05-03T07:14:08.121Z,1013.85
2016-05-03T07:15:08.108Z,1013.84
2016-05-03T07:16:08.079Z,1013.9
2016-05-03T07:17:08.066Z,1013.91
2016-05-03T07:18:08.053Z,1014.03
2016-05-03T07:19:08.041Z,1013.95
2016-05-03T07:20:08.011Z,1014.01
2016-05-03T07:21:07.999Z,1013.96
2016-05-03T07:22:07.986Z,1013.99
2016-05-03T07:23:07.958Z,1013.97
2016-05-03T07:24:07.944Z,1014.06
2016-05-03T07:25:07.932Z,1014.14
2016-05-03T07:26:07.903Z,1014.12
2016-05-03T07:27:07.890Z,1014.15
2016-05-03T07:28:07.877Z,1014.18
2016-05-03T07:29:07.848Z,1014.13
2016-05-03T07:30:07.836Z,1014.15
2016-05-03T07:31:07.823Z,1014.17
2016-05-03T07:32:07.810Z,1014.15
2016-05-03T07:33:07.782Z,1014.13
2016-05-03T07:34:07.768Z,1014.12
2016-05-03T07:35:07.755Z,1014.11
2016-05-03T07:36:07.726Z,1014.08
2016-05-03T07:37:07.714Z,1014.11
2016-05-03T07:38:07.685Z,1014.15
2016-05-03T07:39:07.672Z,1014.16
2016-05-03T07:40:07.660Z,1014.15
2016-05-03T07:41:07.631Z,1014.18
2016-05-03T07:42:07.618Z,1014.22
2016-05-03T07:43:07.606Z,1014.2
2016-05-03T07:44:07.576Z,1014.28
2016-05-03T07:45:07.564Z,1014.24
2016-05-03T07:46:07.550Z,1014.3
2016-05-03T07:47:07.537Z,1014.31
2016-05-03T07:48:07.509Z,1014.36
2016-05-03T07:49:07.497Z,1014.38
2016-05-03T07:50:07.467Z,1014.4
2016-05-03T07:51:07.455Z,1014.41
2016-05-03T07:52:07.442Z,1014.43
2016-05-03T07:53:07.428Z,1014.42
2016-05-03T07:54:07.416Z,1014.45
2016-05-03T07:55:07.388Z,1014.5
2016-05-03T07:56:07.375Z,1014.5
2016-05-03T07:57:07.346Z,1014.55
2016-05-03T07:58:07.332Z,1014.59
2016-05-03T07:59:07.304Z,1014.52
2016-05-03T08:00:07.291Z,1014.54
2016-05-03T08:01:07.279Z,1014.53
2016-05-03T08:02:07.266Z,1014.56
2016-05-03T08:03:07.238Z,1014.57
2016-05-03T08:04:07.224Z,1014.56
2016-05-03T08:05:07.196Z,1014.55
2016-05-03T08:06:07.183Z,1014.53
2016-05-03T08:07:07.170Z,1014.51
2016-05-03T08:08:07.141Z,1014.57
2016-05-03T08:09:07.129Z,1014.62
2016-05-03T08:10:07.099Z,1014.61
2016-05-03T08:11:07.086Z,1014.57
2016-05-03T08:12:07.074Z,1014.54
2016-05-03T08:13:07.045Z,1014.56
2016-05-03T08:14:07.031Z,1014.68
2016-05-03T08:15:07.020Z,1014.67
2016-05-03T08:16:06.990Z,1014.63
2016-05-03T08:17:06.978Z,1014.64
2016-05-03T08:18:06.950Z,1014.65
2016-05-03T08:19:06.936Z,1014.68
2016-05-03T08:20:06.923Z,1014.66
2016-05-03T08:21:06.894Z,1014.66
2016-05-03T08:22:06.881Z,1014.66
2016-05-03T08:23:06.869Z,1014.62
2016-05-03T08:24:06.841Z,1014.66
2016-05-03T08:25:06.827Z,1014.68
2016-05-03T08:26:06.814Z,1014.65
2016-05-03T08:27:06.786Z,1014.68
2016-05-03T08:28:06.788Z,1014.7
2016-05-03T08:29:06.760Z,1014.71
2016-05-03T08:30:06.732Z,1014.74
2016-05-03T08:31:06.719Z,1014.74
2016-05-03T08:32:06.705Z,1014.72
2016-05-03T08:33:06.677Z,1014.72
2016-05-03T08:34:06.663Z,1014.71
2016-05-03T08:35:06.635Z,1014.73
2016-05-03T08:36:06.623Z,1014.72
2016-05-03T08:37:06.609Z,1014.72
2016-05-03T08:38:06.596Z,1014.69
2016-05-03T08:39:06.568Z,1014.71
2016-05-03T08:40:06.554Z,1014.7
2016-05-03T08:41:06.526Z,1014.7
2016-05-03T08:42:06.514Z,1014.7
2016-05-03T08:43:06.500Z,1014.69
2016-05-03T08:44:06.487Z,1014.69
2016-05-03T08:45:06.476Z,1014.65
2016-05-03T08:46:06.446Z,1014.69
2016-05-03T08:47:06.433Z,1014.67
2016-05-03T08:48:06.421Z,1014.74
2016-05-03T08:49:06.392Z,1014.74
2016-05-03T08:50:06.378Z,1014.73
2016-05-03T08:51:06.366Z,1014.77
2016-05-03T08:52:06.337Z,1014.77
2016-05-03T08:53:06.324Z,1014.78
2016-05-03T08:54:06.311Z,1014.84
2016-05-03T08:55:06.299Z,1014.81
2016-05-03T08:56:06.270Z,1014.83
2016-05-03T08:57:06.258Z,1014.84
2016-05-03T08:58:06.244Z,1014.89
2016-05-03T08:59:06.216Z,1014.82
2016-05-03T09:00:06.203Z,1014.85
2016-05-03T09:01:06.190Z,1014.85
2016-05-03T09:02:06.161Z,1014.89
2016-05-03T09:03:06.148Z,1014.92
2016-05-03T09:04:06.135Z,1014.89
2016-05-03T09:05:06.122Z,1014.9
2016-05-03T09:06:06.094Z,1014.91
2016-05-03T09:07:06.081Z,1014.92
2016-05-03T09:08:06.084Z,1014.97
2016-05-03T09:09:06.055Z,1014.94
2016-05-03T09:10:06.042Z,1014.96
2016-05-03T09:11:06.013Z,1015.03
2016-05-03T09:12:05.985Z,1014.97
2016-05-03T09:13:05.973Z,1014.99
2016-05-03T09:14:05.959Z,1014.93
2016-05-03T09:15:05.946Z,1014.93
2016-05-03T09:16:05.917Z,1014.98
2016-05-03T09:17:05.904Z,1014.95
2016-05-03T09:18:05.892Z,1014.98
2016-05-03T09:19:05.878Z,1014.99
2016-05-03T09:20:05.850Z,1014.99
2016-05-03T09:21:05.837Z,1014.98
2016-05-03T09:22:05.824Z,1015.02
2016-05-03T09:23:06.014Z,1015
2016-05-03T09:24:05.783Z,1015
2016-05-03T09:25:05.801Z,1014.98
2016-05-03T09:26:05.741Z,1014.99
2016-05-03T09:27:05.728Z,1014.98
2016-05-03T09:28:05.716Z,1014.98
2016-05-03T09:29:05.687Z,1015.01
2016-05-03T09:30:05.674Z,1014.98
2016-05-03T09:31:05.661Z,1014.99
2016-05-03T09:32:05.788Z,1014.94
2016-05-03T09:33:05.651Z,1014.93
2016-05-03T09:34:05.606Z,1015.01
2016-05-03T09:35:05.594Z,1014.97
2016-05-03T09:36:05.580Z,1014.99
2016-05-03T09:37:05.568Z,1015.05
2016-05-03T09:38:05.540Z,1015.04
2016-05-03T09:39:05.526Z,1015.01
2016-05-03T09:40:05.748Z,1015.03
2016-05-03T09:41:05.485Z,1015.03
2016-05-03T09:42:05.471Z,1015.08
2016-05-03T09:43:05.459Z,1015.08
2016-05-03T09:44:05.446Z,1015.05
2016-05-03T09:45:05.418Z,1015.06
2016-05-03T09:46:05.404Z,1015.13
2016-05-03T09:47:05.376Z,1015.06
2016-05-03T09:48:05.817Z,1015.11
2016-05-03T09:49:05.350Z,1015.13
2016-05-03T09:50:05.337Z,1015.14
2016-05-03T09:51:05.308Z,1015.05
2016-05-03T09:52:05.296Z,1015.13
2016-05-03T09:53:05.298Z,1015.19
2016-05-03T09:54:05.253Z,1015.16
2016-05-03T09:55:05.242Z,1015.21
2016-05-03T09:56:05.822Z,1015.25
2016-05-03T09:57:05.216Z,1015.28
2016-05-03T09:58:05.203Z,1015.29
2016-05-03T09:59:05.174Z,1015.31
2016-05-03T10:00:05.161Z,1015.43
2016-05-03T10:01:05.132Z,1015.44
2016-05-03T10:02:05.120Z,1015.39
2016-05-03T10:03:05.107Z,1015.37
2016-05-03T10:04:05.093Z,1015.42
2016-05-03T10:05:05.065Z,1015.37
2016-05-03T10:06:05.052Z,1015.45
2016-05-03T10:07:05.038Z,1015.37
2016-05-03T10:08:05.557Z,1015.43
2016-05-03T10:09:04.998Z,1015.42
2016-05-03T10:10:04.984Z,1015.35
2016-05-03T10:11:04.971Z,1015.38
2016-05-03T10:12:05.099Z,1015.3
2016-05-03T10:13:04.930Z,1015.33
2016-05-03T10:14:04.917Z,1015.37
2016-05-03T10:15:04.904Z,1015.4
2016-05-03T10:16:04.876Z,1015.39
2016-05-03T10:17:04.863Z,1015.34
2016-05-03T10:18:04.850Z,1015.35
2016-05-03T10:19:04.821Z,1015.39
2016-05-03T10:20:05.058Z,1015.41
2016-05-03T10:21:04.796Z,1015.38
2016-05-03T10:22:04.783Z,1015.36
2016-05-03T10:23:04.769Z,1015.44
2016-05-03T10:24:04.741Z,1015.42
2016-05-03T10:25:04.728Z,1015.41
2016-05-03T10:26:04.715Z,1015.44
2016-05-03T10:27:04.687Z,1015.46
2016-05-03T10:28:05.127Z,1015.44
2016-05-03T10:29:04.661Z,1015.39
2016-05-03T10:30:04.633Z,1015.43
2016-05-03T10:31:04.619Z,1015.41
2016-05-03T10:32:04.606Z,1015.41
2016-05-03T10:33:04.594Z,1015.38
2016-05-03T10:34:04.565Z,1015.41
2016-05-03T10:35:04.552Z,1015.36
2016-05-03T10:36:04.539Z,1015.4
2016-05-03T10:37:04.527Z,1015.39
2016-05-03T10:38:04.497Z,1015.33
2016-05-03T10:39:04.485Z,1015.38
2016-05-03T10:40:04.472Z,1015.38
2016-05-03T10:41:04.443Z,1015.42
2016-05-03T10:42:04.430Z,1015.45
2016-05-03T10:43:04.418Z,1015.43
2016-05-03T10:44:04.404Z,1015.48
2016-05-03T10:45:04.376Z,1015.5
2016-05-03T10:46:04.363Z,1015.43
2016-05-03T10:47:04.350Z,1015.5
2016-05-03T10:48:04.321Z,1015.48
2016-05-03T10:49:04.308Z,1015.48
2016-05-03T10:50:04.295Z,1015.52
2016-05-03T10:51:04.282Z,1015.53
2016-05-03T10:52:04.254Z,1015.43
2016-05-03T10:53:04.242Z,1015.45
2016-05-03T10:54:04.228Z,1015.52
2016-05-03T10:55:04.214Z,1015.47
2016-05-03T10:56:04.187Z,1015.53
2016-05-03T10:57:04.173Z,1015.44
2016-05-03T10:58:04.161Z,1015.52
2016-05-03T10:59:04.133Z,1015.53
2016-05-03T11:00:04.119Z,1015.59
2016-05-03T11:01:04.106Z,1015.68
2016-05-03T11:02:04.094Z,1015.66
2016-05-03T11:03:04.064Z,1015.65
2016-05-03T11:04:04.052Z,1015.59
2016-05-03T11:05:04.039Z,1015.64
2016-05-03T11:06:04.026Z,1015.61
2016-05-03T11:07:03.997Z,1015.67
2016-05-03T11:08:03.985Z,1015.68
2016-05-03T11:09:03.971Z,1015.72
2016-05-03T11:10:03.959Z,1015.69
2016-05-03T11:11:03.930Z,1015.78
2016-05-03T11:12:03.917Z,1015.76
2016-05-03T11:13:03.905Z,1015.73
2016-05-03T11:14:03.875Z,1015.77
2016-05-03T11:15:03.862Z,1015.81
2016-05-03T11:16:03.849Z,1015.77
2016-05-03T11:17:03.821Z,1015.81
2016-05-03T11:18:03.809Z,1015.78
2016-05-03T11:19:03.795Z,1015.88
2016-05-03T11:20:03.782Z,1015.85
2016-05-03T11:21:03.769Z,1015.78
2016-05-03T11:22:03.741Z,1015.84
2016-05-03T11:23:03.728Z,1015.84
2016-05-03T11:24:03.715Z,1015.85
2016-05-03T11:25:03.687Z,1015.85
2016-05-03T11:26:03.673Z,1015.88
2016-05-03T11:27:03.661Z,1015.9
2016-05-03T11:28:03.632Z,1015.87
2016-05-03T11:29:03.619Z,1015.87
2016-05-03T11:30:03.606Z,1015.85
2016-05-03T11:31:03.594Z,1015.84
2016-05-03T11:32:03.580Z,1015.89
2016-05-03T11:33:03.552Z,1015.88
2016-05-03T11:34:03.539Z,1015.88
2016-05-03T11:35:03.525Z,1015.87
2016-05-03T11:36:03.497Z,1015.85
2016-05-03T11:37:03.500Z,1015.86
2016-05-03T11:38:03.471Z,1015.9
2016-05-03T11:39:03.443Z,1015.81
2016-05-03T11:40:03.430Z,1015.87
2016-05-03T11:41:03.416Z,1015.87
2016-05-03T11:42:03.405Z,1015.83
2016-05-03T11:43:03.376Z,1015.79
2016-05-03T11:44:03.363Z,1015.76
2016-05-03T11:45:03.350Z,1015.82
2016-05-03T11:46:03.337Z,1015.85
2016-05-03T11:47:03.307Z,1015.85
2016-05-03T11:48:03.295Z,1015.91
2016-05-03T11:49:03.282Z,1015.89
2016-05-03T11:50:03.254Z,1015.88
2016-05-03T11:51:03.241Z,1015.92
2016-05-03T11:52:03.228Z,1015.92
2016-05-03T11:53:03.231Z,1015.97
2016-05-03T11:54:03.201Z,1015.94
2016-05-03T11:55:03.174Z,1015.93
2016-05-03T11:56:03.161Z,1015.95
2016-05-03T11:57:03.148Z,1015.93
2016-05-03T11:58:03.119Z,1015.93
2016-05-03T11:59:03.106Z,1015.93
2016-05-03T12:00:03.093Z,1015.96
2016-05-03T12:01:03.064Z,1015.94
2016-05-03T12:02:03.053Z,1015.94
2016-05-03T12:03:04.039Z,1015.89
2016-05-03T12:04:03.025Z,1015.95
2016-05-03T12:05:03.013Z,1015.94
2016-05-03T12:06:02.984Z,1015.89
2016-05-03T12:07:02.972Z,1015.87